createdAt,value
2019-03-22T00:00:34.510Z,1.40
2019-03-22T00:04:53.552Z,1.63
2019-03-22T00:09:13.049Z,1.70
2019-03-22T00:13:32.458Z,2.17
2019-03-22T00:17:51.506Z,2.50
2019-03-22T00:22:10.505Z,1.90
2019-03-22T00:26:32.408Z,1.57
2019-03-22T00:30:51.501Z,1.70
2019-03-22T00:35:10.720Z,1.80
2019-03-22T00:39:29.856Z,1.73
2019-03-22T00:43:48.830Z,1.40
2019-03-22T00:48:07.797Z,1.40
2019-03-22T00:52:26.921Z,1.60
2019-03-22T00:56:45.863Z,1.70
2019-03-22T01:01:04.795Z,2.00
2019-03-22T01:05:24.514Z,1.60
2019-03-22T01:09:43.405Z,2.07
2019-03-22T01:14:02.663Z,1.90
2019-03-22T01:18:22.115Z,2.13
2019-03-22T01:22:41.164Z,1.97
2019-03-22T01:27:00.905Z,1.50
2019-03-22T01:31:20.704Z,1.60
2019-03-22T01:35:40.090Z,1.57
2019-03-22T01:39:59.052Z,2.47
2019-03-22T01:44:17.964Z,2.00
2019-03-22T01:48:37.373Z,1.67
2019-03-22T01:52:57.094Z,1.60
2019-03-22T01:57:16.018Z,1.83
2019-03-22T02:01:35.859Z,1.20
2019-03-22T02:05:56.215Z,1.53
2019-03-22T02:10:16.353Z,2.30
2019-03-22T02:14:35.950Z,2.43
2019-03-22T02:18:54.882Z,2.03
2019-03-22T02:23:14.010Z,2.20
2019-03-22T02:27:33.351Z,1.60
2019-03-22T02:31:52.322Z,1.67
2019-03-22T02:36:11.802Z,1.60
2019-03-22T02:40:30.823Z,1.97
2019-03-22T02:44:49.847Z,1.90
2019-03-22T02:49:08.843Z,2.03
2019-03-22T02:53:30.215Z,2.10
2019-03-22T02:57:48.782Z,1.50
2019-03-22T03:02:07.759Z,4.83
2019-03-22T03:06:26.781Z,2.63
2019-03-22T03:10:45.775Z,2.20
2019-03-22T03:15:05.554Z,1.70
2019-03-22T03:19:24.707Z,1.63
2019-03-22T03:23:43.747Z,2.87
2019-03-22T03:28:02.674Z,1.60
2019-03-22T03:32:21.683Z,1.87
2019-03-22T03:36:40.724Z,1.63
2019-03-22T03:40:59.675Z,2.87
2019-03-22T03:45:33.886Z,1.90
2019-03-22T03:49:53.258Z,1.60
2019-03-22T03:54:12.568Z,1.93
2019-03-22T03:58:32.531Z,1.60
2019-03-22T04:02:51.412Z,2.57
2019-03-22T04:07:11.664Z,1.90
2019-03-22T04:11:31.022Z,2.37
2019-03-22T04:15:50.136Z,1.83
2019-03-22T04:20:09.483Z,1.83
2019-03-22T04:24:28.546Z,4.13
2019-03-22T04:28:47.809Z,2.10
2019-03-22T04:33:07.178Z,2.27
2019-03-22T04:37:26.463Z,1.97
2019-03-22T04:41:45.804Z,2.80
2019-03-22T04:46:05.416Z,3.17
2019-03-22T04:50:27.392Z,1.67
2019-03-22T04:54:50.665Z,1.70
2019-03-22T04:59:19.335Z,2.50
2019-03-22T05:03:40.558Z,1.80
2019-03-22T05:08:00.349Z,4.40
2019-03-22T05:12:22.821Z,4.10
2019-03-22T05:16:46.113Z,3.03
2019-03-22T05:21:06.985Z,2.40
2019-03-22T05:25:28.276Z,2.00
2019-03-22T05:29:51.053Z,2.20
2019-03-22T05:34:10.056Z,1.97
2019-03-22T05:38:29.141Z,2.10
2019-03-22T05:42:48.385Z,2.60
2019-03-22T05:47:07.284Z,1.80
2019-03-22T05:51:26.407Z,2.40
2019-03-22T05:55:45.340Z,2.20
2019-03-22T06:00:05.205Z,2.13
2019-03-22T06:04:24.355Z,2.03
2019-03-22T06:08:43.826Z,1.57
2019-03-22T06:13:02.955Z,2.03
2019-03-22T06:17:21.979Z,1.83
2019-03-22T06:21:41.082Z,1.67
2019-03-22T06:26:00.068Z,1.70
2019-03-22T06:30:19.043Z,1.73
2019-03-22T06:34:38.487Z,1.93
2019-03-22T06:38:58.644Z,2.17
2019-03-22T06:43:18.218Z,2.10
2019-03-22T06:47:37.342Z,2.57
2019-03-22T06:51:56.239Z,2.93
2019-03-22T06:56:15.165Z,2.50
2019-03-22T07:00:34.666Z,1.80
2019-03-22T07:04:53.699Z,2.00
2019-03-22T07:09:12.988Z,2.33
2019-03-22T07:13:35.689Z,2.80
2019-03-22T07:17:54.666Z,2.40
2019-03-22T07:22:14.098Z,2.53
2019-03-22T07:26:33.301Z,2.70
2019-03-22T07:30:52.266Z,2.27
2019-03-22T07:35:11.470Z,1.70
2019-03-22T07:39:30.606Z,1.70
2019-03-22T07:43:49.561Z,2.03
2019-03-22T07:48:08.603Z,2.60
2019-03-22T07:52:27.665Z,3.10
2019-03-22T07:56:46.637Z,2.93
2019-03-22T08:01:05.704Z,3.10
2019-03-22T08:05:24.658Z,3.13
2019-03-22T08:09:43.608Z,2.90
2019-03-22T08:14:02.611Z,5.77
2019-03-22T08:18:21.919Z,4.20
2019-03-22T08:22:40.932Z,3.30
2019-03-22T08:27:00.026Z,4.30
2019-03-22T08:31:18.987Z,3.83
2019-03-22T08:35:37.837Z,5.13
2019-03-22T08:39:58.237Z,3.63
2019-03-22T08:44:18.868Z,3.43
2019-03-22T08:48:37.874Z,8.60
2019-03-22T08:52:56.711Z,4.63
2019-03-22T08:57:16.179Z,4.87
2019-03-22T09:01:35.067Z,4.30
2019-03-22T09:05:53.899Z,4.27
2019-03-22T09:10:13.321Z,5.00
2019-03-22T09:14:32.409Z,5.60
2019-03-22T09:18:52.134Z,5.80
2019-03-22T09:23:11.259Z,6.10
2019-03-22T09:27:30.283Z,6.23
2019-03-22T09:31:49.637Z,4.60
2019-03-22T09:36:08.810Z,5.40
2019-03-22T09:40:27.828Z,4.97
2019-03-22T09:44:46.905Z,5.10
2019-03-22T09:49:05.967Z,4.90
2019-03-22T09:53:24.961Z,4.60
2019-03-22T09:57:44.064Z,4.97
2019-03-22T10:02:03.812Z,3.93
2019-03-22T10:06:22.899Z,4.67
2019-03-22T10:10:42.418Z,4.57
2019-03-22T10:15:01.521Z,4.33
2019-03-22T10:19:22.023Z,5.50
2019-03-22T10:23:41.373Z,4.83
2019-03-22T10:28:00.358Z,5.17
2019-03-22T10:32:19.247Z,6.10
2019-03-22T10:36:38.604Z,5.50
2019-03-22T10:40:57.708Z,5.20
2019-03-22T10:45:16.779Z,5.43
2019-03-22T10:49:36.109Z,6.70
2019-03-22T10:53:55.580Z,5.60
2019-03-22T10:58:20.741Z,5.43
2019-03-22T11:02:35.123Z,5.40
2019-03-22T11:06:53.937Z,5.70
2019-03-22T11:11:12.937Z,5.67
2019-03-22T11:15:33.167Z,6.70
2019-03-22T11:19:52.683Z,6.43
2019-03-22T11:24:12.476Z,5.73
2019-03-22T11:28:32.462Z,5.33
2019-03-22T11:32:51.474Z,7.00
2019-03-22T11:37:10.412Z,5.87
2019-03-22T11:41:29.428Z,5.77
2019-03-22T11:45:48.706Z,6.20
2019-03-22T11:50:10.005Z,5.70
2019-03-22T11:54:28.958Z,5.57
2019-03-22T11:58:48.114Z,6.80
2019-03-22T12:03:07.926Z,4.93
2019-03-22T12:07:26.897Z,5.93
2019-03-22T12:11:47.884Z,4.40
2019-03-22T12:16:06.973Z,6.57
2019-03-22T12:20:26.458Z,5.27
2019-03-22T12:24:45.442Z,6.10
2019-03-22T12:29:04.456Z,5.40
2019-03-22T12:33:23.452Z,5.43
2019-03-22T12:37:42.495Z,4.90
2019-03-22T12:42:01.497Z,4.63
2019-03-22T12:46:21.545Z,4.60
2019-03-22T12:50:40.496Z,6.10
2019-03-22T12:54:59.792Z,5.20
2019-03-22T12:59:20.737Z,3.93
2019-03-22T13:03:39.620Z,3.57
2019-03-22T13:07:58.868Z,4.53
2019-03-22T13:12:17.731Z,3.93
2019-03-22T13:16:37.248Z,4.27
2019-03-22T13:20:56.064Z,4.13
2019-03-22T13:25:15.702Z,3.40
2019-03-22T13:29:35.338Z,3.53
2019-03-22T13:33:54.917Z,3.50
2019-03-22T13:38:14.174Z,3.30
2019-03-22T13:42:33.669Z,3.30
2019-03-22T13:46:53.067Z,3.00
2019-03-22T13:51:12.364Z,3.97
2019-03-22T13:55:31.341Z,2.70
2019-03-22T13:59:50.406Z,3.23
2019-03-22T14:04:09.330Z,3.63
2019-03-22T14:08:29.271Z,4.17
2019-03-22T14:12:49.096Z,3.63
2019-03-22T14:17:16.384Z,2.93
2019-03-22T14:21:36.309Z,4.17
2019-03-22T14:25:56.403Z,4.63
2019-03-22T14:30:16.352Z,3.00
2019-03-22T14:34:38.620Z,2.73
2019-03-22T14:38:59.259Z,2.90
2019-03-22T14:43:20.465Z,3.70
2019-03-22T14:47:39.544Z,3.27
2019-03-22T14:51:59.699Z,2.73
2019-03-22T14:56:19.689Z,3.20
2019-03-22T15:00:39.050Z,2.93
2019-03-22T15:04:58.203Z,3.20
2019-03-22T15:09:17.203Z,3.30
2019-03-22T15:13:55.353Z,3.03
2019-03-22T15:18:45.190Z,3.90
2019-03-22T15:23:23.588Z,2.73
2019-03-22T15:28:02.136Z,3.30
2019-03-22T15:32:57.069Z,3.50
2019-03-22T15:37:42.535Z,2.97
2019-03-22T15:42:02.631Z,2.73
2019-03-22T15:46:23.219Z,3.67
2019-03-22T15:50:43.105Z,4.10
2019-03-22T15:55:02.911Z,3.47
2019-03-22T15:59:22.791Z,3.10
2019-03-22T16:03:44.700Z,3.60
2019-03-22T16:08:04.970Z,3.87
2019-03-22T16:12:26.153Z,4.40
2019-03-22T16:16:46.901Z,4.40
2019-03-22T16:21:06.882Z,3.80
2019-03-22T16:25:30.661Z,4.93
2019-03-22T16:29:49.859Z,4.33
2019-03-22T16:34:08.881Z,4.87
2019-03-22T16:38:28.397Z,4.87
2019-03-22T16:42:47.889Z,4.30
2019-03-22T16:47:06.905Z,6.30
2019-03-22T16:51:27.514Z,4.00
2019-03-22T16:55:46.487Z,4.53
2019-03-22T17:00:06.325Z,3.90
2019-03-22T17:04:26.120Z,3.43
2019-03-22T17:08:45.395Z,6.00
2019-03-22T17:13:04.653Z,4.00
2019-03-22T17:17:23.801Z,3.80
2019-03-22T17:21:46.504Z,3.47
2019-03-22T17:26:06.720Z,5.67
2019-03-22T17:30:26.361Z,4.00
2019-03-22T17:34:45.903Z,3.40
2019-03-22T17:39:07.478Z,3.87
2019-03-22T17:43:26.562Z,3.53
2019-03-22T17:47:49.328Z,4.90
2019-03-22T17:52:08.268Z,4.50
2019-03-22T17:56:27.310Z,3.97
2019-03-22T18:00:47.297Z,4.50
2019-03-22T18:05:07.265Z,3.43
2019-03-22T18:09:26.796Z,4.47
2019-03-22T18:13:46.193Z,3.80
2019-03-22T18:18:06.950Z,3.77
2019-03-22T18:22:26.089Z,3.83
2019-03-22T18:26:44.991Z,5.97
2019-03-22T18:31:03.927Z,4.07
2019-03-22T18:35:23.204Z,4.20
2019-03-22T18:39:43.784Z,4.10
2019-03-22T18:44:03.663Z,4.43
2019-03-22T18:48:23.121Z,4.23
2019-03-22T18:52:42.183Z,3.70
2019-03-22T18:57:01.234Z,4.93
2019-03-22T19:01:20.249Z,4.40
2019-03-22T19:05:39.310Z,5.53
2019-03-22T19:09:58.294Z,5.53
2019-03-22T19:14:17.237Z,4.90
2019-03-22T19:18:36.324Z,5.27
2019-03-22T19:22:56.471Z,5.83
2019-03-22T19:27:16.760Z,4.20
2019-03-22T19:31:35.910Z,4.47
2019-03-22T19:35:58.197Z,6.67
2019-03-22T19:40:17.341Z,6.27
2019-03-22T19:44:36.806Z,5.73
2019-03-22T19:48:57.894Z,4.23
2019-03-22T19:53:17.371Z,4.23
2019-03-22T19:57:38.236Z,3.67
2019-03-22T20:01:57.246Z,5.87
2019-03-22T20:06:16.963Z,3.43
2019-03-22T20:10:36.579Z,5.00
2019-03-22T20:14:55.780Z,3.60
2019-03-22T20:19:15.510Z,3.47
2019-03-22T20:23:35.019Z,5.03
2019-03-22T20:27:53.987Z,4.43
2019-03-22T20:32:12.952Z,4.33
2019-03-22T20:36:33.442Z,4.30
2019-03-22T20:40:52.544Z,3.83
2019-03-22T20:45:11.856Z,5.80
2019-03-22T20:49:30.954Z,4.70
2019-03-22T20:53:49.906Z,4.10
2019-03-22T20:58:08.955Z,4.47
2019-03-22T21:02:27.989Z,3.77
2019-03-22T21:06:47.377Z,3.80
2019-03-22T21:11:06.433Z,4.00
2019-03-22T21:15:25.415Z,4.27
2019-03-22T21:19:44.818Z,3.27
2019-03-22T21:24:04.317Z,3.80
2019-03-22T21:28:23.353Z,3.73
2019-03-22T21:32:45.506Z,4.57
2019-03-22T21:37:03.464Z,4.30
2019-03-22T21:41:23.665Z,3.97
2019-03-22T21:45:42.637Z,3.40
2019-03-22T21:50:01.655Z,4.10
2019-03-22T21:54:21.393Z,5.80
2019-03-22T21:58:40.446Z,3.53
2019-03-22T22:02:59.276Z,4.90
2019-03-22T22:07:18.310Z,3.50
2019-03-22T22:11:37.589Z,3.00
2019-03-22T22:15:56.534Z,3.27
2019-03-22T22:20:15.654Z,4.60
2019-03-22T22:24:34.715Z,4.33
2019-03-22T22:28:53.755Z,3.57
2019-03-22T22:33:12.665Z,4.27
2019-03-22T22:37:31.655Z,3.30
2019-03-22T22:41:50.537Z,4.40
2019-03-22T22:46:10.915Z,3.83
2019-03-22T22:50:30.291Z,4.57
2019-03-22T22:54:49.730Z,4.33
2019-03-22T22:59:08.721Z,4.17
2019-03-22T23:03:28.029Z,5.00
2019-03-22T23:07:47.021Z,3.60
2019-03-22T23:12:07.485Z,4.10
2019-03-22T23:16:26.615Z,4.67
2019-03-22T23:20:45.708Z,3.67
2019-03-22T23:25:04.721Z,3.53
2019-03-22T23:29:24.729Z,3.53
2019-03-22T23:33:43.858Z,3.73
2019-03-22T23:38:03.804Z,2.80
2019-03-22T23:42:23.160Z,4.10
2019-03-22T23:46:42.086Z,3.00
2019-03-22T23:51:01.019Z,3.47
2019-03-22T23:55:20.222Z,3.13
2019-03-22T23:59:39.527Z,3.73
